Main page
METAR-TAF:

METAR-TAF

Airports :

Munich, Germany

Munich Airport

latitude: 48-21N, longitude: 011-47E, elevation: 453 m

Current weather observation

The report was made 25 minutes ago, at 08:50 UTC
Wind 13 kt from the East
Temperature 8°C
Humidity 57%
Pressure 1021 hPa
Visibility 10 km or more
no clouds below 1500 m and no cumulonimbus

METAR: EDDM 260850Z 08013KT CAVOK 08/00 Q1021 NOSIG

Time: 11:15 (09:15 UTC)

Forecast

The report was made 4 hours and 15 minutes ago, at 05:00 UTC
Forecast valid from 26 at 06 UTC to 27 at 12 UTC
Wind 6 kt from the Northeast
Visibility 10 km or more
no clouds below 1500 m and no cumulonimbus
Becoming
from 26 at 07 UTC to 26 at 09 UTC
Wind 11 kt from the East/Northeast
Becoming
from 26 at 16 UTC to 26 at 18 UTC
Wind 6 kt from the East/Northeast
Becoming
from 27 at 07 UTC to 27 at 09 UTC
Wind 11 kt from the East

TAF: EDDM 260500Z 2606/2712 05006KT CAVOK BECMG 2607/2609 07011KT BECMG 2616/2618 06006KT BECMG 2707/2709 08011KT

Weather observations and forecasts of more than 4000 airports (METAR and TAF reports).

The available stations are represented by yellow and red dots on the map.

Hover mouse over dot to see the name of the station.

Then click to see weather observations and forecasts.

To change the map : click on the green buttons with a black cross to zoom in, on the green button with a dash to zoom out, or on the green arrows for adjacent maps.


METAR-TAF: